createdAt,value
2018-05-12T00:01:35.263Z,100033.22
2018-05-12T00:04:02.843Z,100034.75
2018-05-12T00:06:30.450Z,100036.19
2018-05-12T00:08:58.007Z,100037.21
2018-05-12T00:11:25.585Z,100039.31
2018-05-12T00:13:53.151Z,100036.28
2018-05-12T00:16:20.744Z,100040.21
2018-05-12T00:18:48.315Z,100035.41
2018-05-12T00:21:16.325Z,100037.36
2018-05-12T00:23:43.971Z,100037.88
2018-05-12T00:26:11.533Z,100035.27
2018-05-12T00:28:39.135Z,100031.58
2018-05-12T00:31:06.717Z,100037.48
2018-05-12T00:33:34.279Z,100032.91
2018-05-12T00:36:01.884Z,100033.17
2018-05-12T00:38:29.462Z,100029.22
2018-05-12T00:40:57.087Z,100034.52
2018-05-12T00:43:24.648Z,100027.88
2018-05-12T00:45:52.212Z,100037.45
2018-05-12T00:48:19.794Z,100033.83
2018-05-12T00:50:47.345Z,100033.83
2018-05-12T00:53:14.943Z,100035.45
2018-05-12T00:55:42.513Z,100033.17
2018-05-12T00:58:10.128Z,100036.38
2018-05-12T01:00:37.703Z,100030.33
2018-05-12T01:03:05.268Z,100035.95
2018-05-12T01:05:32.866Z,100039.91
2018-05-12T01:08:00.415Z,100033.44
2018-05-12T01:10:28.037Z,100037.30
2018-05-12T01:12:55.592Z,100042.36
2018-05-12T01:15:23.215Z,100037.06
2018-05-12T01:17:50.771Z,100044.13
2018-05-12T01:20:18.323Z,100049.70
2018-05-12T01:22:45.891Z,100046.99
2018-05-12T01:25:13.450Z,100042.89
2018-05-12T01:27:41.041Z,100040.72
2018-05-12T01:30:08.599Z,100050.36
2018-05-12T01:32:36.265Z,100048.86
2018-05-12T01:35:03.835Z,100052.75
2018-05-12T01:37:31.396Z,100061.00
2018-05-12T01:39:58.961Z,100050.41
2018-05-12T01:42:26.551Z,100043.38
2018-05-12T01:44:54.151Z,100050.61
2018-05-12T01:47:21.699Z,100042.29
2018-05-12T01:49:49.349Z,100046.57
2018-05-12T01:52:16.906Z,100045.52
2018-05-12T01:54:44.488Z,100046.78
2018-05-12T01:57:12.068Z,100049.81
2018-05-12T01:59:39.627Z,100051.99
2018-05-12T02:02:07.220Z,100056.63
2018-05-12T02:04:34.799Z,100049.30
2018-05-12T02:07:02.448Z,100058.97
2018-05-12T02:09:30.017Z,100052.50
2018-05-12T02:11:57.625Z,100051.62
2018-05-12T02:14:25.205Z,100044.05
2018-05-12T02:16:52.764Z,100051.53
2018-05-12T02:19:20.327Z,100048.29
2018-05-12T02:21:47.921Z,100041.82
2018-05-12T02:24:15.595Z,100040.23
2018-05-12T02:26:43.150Z,100041.48
2018-05-12T02:29:10.731Z,100039.55
2018-05-12T02:31:38.299Z,100042.81
2018-05-12T02:34:05.863Z,100034.86
2018-05-12T02:36:33.434Z,100033.43
2018-05-12T02:39:00.995Z,100029.72
2018-05-12T02:41:28.618Z,100037.30
2018-05-12T02:43:56.227Z,100036.55
2018-05-12T02:46:23.808Z,100035.07
2018-05-12T02:48:51.395Z,100036.09
2018-05-12T02:51:19.029Z,100035.94
2018-05-12T02:53:46.664Z,100041.23
2018-05-12T02:56:14.247Z,100049.31
2018-05-12T02:58:41.813Z,100045.78
2018-05-12T03:01:09.379Z,100049.23
2018-05-12T03:03:36.931Z,100053.30
2018-05-12T03:06:04.560Z,100055.05
2018-05-12T03:08:32.125Z,100059.66
2018-05-12T03:10:59.713Z,100061.88
2018-05-12T03:13:27.312Z,100058.75
2018-05-12T03:15:54.867Z,100058.44
2018-05-12T03:18:22.460Z,100058.45
2018-05-12T03:20:50.020Z,100060.13
2018-05-12T03:23:17.646Z,100055.53
2018-05-12T03:25:45.200Z,100064.30
2018-05-12T03:28:12.765Z,100061.60
2018-05-12T03:30:40.335Z,100060.46
2018-05-12T03:33:07.911Z,100061.42
2018-05-12T03:35:35.550Z,100061.86
2018-05-12T03:38:03.115Z,100061.09
2018-05-12T03:40:30.669Z,100067.87
2018-05-12T03:42:58.240Z,100068.75
2018-05-12T03:45:25.809Z,100072.10
2018-05-12T03:47:53.396Z,100075.40
2018-05-12T03:50:20.976Z,100067.37
2018-05-12T03:52:48.527Z,100064.68
2018-05-12T03:55:16.100Z,100059.30
2018-05-12T03:57:43.685Z,100065.85
2018-05-12T04:00:11.255Z,100060.75
2018-05-12T04:02:38.808Z,100062.46
2018-05-12T04:05:18.124Z,100065.68
2018-05-12T04:07:57.483Z,100057.61
2018-05-12T04:10:43.545Z,100062.11
2018-05-12T04:13:11.127Z,100061.45
2018-05-12T04:15:38.706Z,100066.77
2018-05-12T04:18:06.271Z,100062.31
2018-05-12T04:20:33.855Z,100066.06
2018-05-12T04:23:01.428Z,100059.52
2018-05-12T04:25:29.002Z,100064.45
2018-05-12T04:27:56.555Z,100068.59
2018-05-12T04:30:24.150Z,100066.66
2018-05-12T04:32:51.717Z,100068.83
2018-05-12T04:35:19.315Z,100066.06
2018-05-12T04:37:46.882Z,100064.94
2018-05-12T04:40:14.499Z,100059.13
2018-05-12T04:42:42.055Z,100064.03
2018-05-12T04:45:09.613Z,100065.70
2018-05-12T04:47:37.189Z,100064.73
2018-05-12T04:50:04.779Z,100071.27
2018-05-12T04:52:32.348Z,100067.20
2018-05-12T04:54:59.899Z,100066.17
2018-05-12T04:57:27.521Z,100067.89
2018-05-12T04:59:55.076Z,100060.38
2018-05-12T05:02:22.659Z,100054.13
2018-05-12T05:04:50.245Z,100045.42
2018-05-12T05:07:17.799Z,100032.58
2018-05-12T05:09:45.368Z,100032.56
2018-05-12T05:12:12.905Z,100041.91
2018-05-12T05:14:40.562Z,100040.95
2018-05-12T05:17:08.115Z,100041.17
2018-05-12T05:19:35.701Z,100040.08
2018-05-12T05:22:03.302Z,100051.48
2018-05-12T05:24:30.836Z,100053.76
2018-05-12T05:26:58.405Z,100058.13
2018-05-12T05:29:26.003Z,100058.39
2018-05-12T05:31:53.625Z,100058.58
2018-05-12T05:34:21.188Z,100059.70
2018-05-12T05:36:48.760Z,100051.82
2018-05-12T05:39:16.328Z,100052.64
2018-05-12T05:41:44.003Z,100049.11
2018-05-12T05:44:11.590Z,100054.84
2018-05-12T05:46:39.189Z,100060.79
2018-05-12T05:49:06.812Z,100059.75
2018-05-12T05:51:34.387Z,100055.73
2018-05-12T05:54:02.026Z,100058.03
2018-05-12T05:56:29.600Z,100060.28
2018-05-12T05:58:57.165Z,100063.03
2018-05-12T06:01:24.755Z,100062.28
2018-05-12T06:03:52.320Z,100061.22
2018-05-12T06:06:19.931Z,100049.30
2018-05-12T06:08:47.518Z,100049.75
2018-05-12T06:11:15.094Z,100050.78
2018-05-12T06:13:42.697Z,100042.44
2018-05-12T06:16:10.280Z,100044.00
2018-05-12T06:18:37.835Z,100048.97
2018-05-12T06:21:05.397Z,100051.42
2018-05-12T06:23:33.040Z,100053.55
2018-05-12T06:26:00.666Z,100059.80
2018-05-12T06:28:28.237Z,100058.91
2018-05-12T06:30:55.834Z,100050.48
2018-05-12T06:33:23.402Z,100050.19
2018-05-12T06:35:50.973Z,100042.51
2018-05-12T06:38:18.537Z,100043.06
2018-05-12T06:40:46.947Z,100042.48
2018-05-12T06:43:14.528Z,100034.89
2018-05-12T06:45:42.068Z,100031.91
2018-05-12T06:48:09.664Z,100032.69
2018-05-12T06:50:37.215Z,100031.37
2018-05-12T06:53:04.771Z,100037.95
2018-05-12T06:55:32.329Z,100034.74
2018-05-12T06:57:59.945Z,100034.96
2018-05-12T07:00:27.501Z,100044.84
2018-05-12T07:02:55.057Z,100038.60
2018-05-12T07:05:22.644Z,100040.05
2018-05-12T07:07:50.200Z,100035.88
2018-05-12T07:10:17.773Z,100034.88
2018-05-12T07:12:45.333Z,100033.48
2018-05-12T07:15:13.022Z,100037.44
2018-05-12T07:17:40.697Z,100041.45
2018-05-12T07:20:08.261Z,100034.22
2018-05-12T07:22:35.828Z,100035.61
2018-05-12T07:25:03.389Z,100033.08
2018-05-12T07:27:30.964Z,100029.39
2018-05-12T07:29:58.533Z,100039.75
2018-05-12T07:32:26.314Z,100040.84
2018-05-12T07:34:53.931Z,100044.76
2018-05-12T07:37:21.496Z,100037.15
2018-05-12T07:39:49.066Z,100037.91
2018-05-12T07:42:16.693Z,100038.87
2018-05-12T07:44:44.255Z,100033.07
2018-05-12T07:47:11.877Z,100033.20
2018-05-12T07:49:39.488Z,100036.89
2018-05-12T07:52:07.044Z,100036.39
2018-05-12T07:54:34.674Z,100027.54
2018-05-12T07:57:02.348Z,100036.13
2018-05-12T07:59:29.913Z,100033.27
2018-05-12T08:01:57.541Z,100035.77
2018-05-12T08:04:25.161Z,100032.98
2018-05-12T08:06:52.786Z,100034.70
2018-05-12T08:09:20.361Z,100038.16
2018-05-12T08:11:47.998Z,100032.91
2018-05-12T08:14:15.684Z,100030.03
2018-05-12T08:16:43.308Z,100028.58
2018-05-12T08:19:10.872Z,100032.16
2018-05-12T08:21:38.478Z,100024.12
2018-05-12T08:24:06.133Z,100026.00
2018-05-12T08:26:33.763Z,100025.34
2018-05-12T08:29:01.401Z,100024.11
2018-05-12T08:31:28.982Z,100022.15
2018-05-12T08:33:56.552Z,100016.12
2018-05-12T08:36:24.098Z,100011.03
2018-05-12T08:38:51.664Z,100013.38
2018-05-12T08:41:19.286Z,100010.41
2018-05-12T08:43:47.033Z,100000.23
2018-05-12T08:46:14.657Z,100011.31
2018-05-12T08:48:42.230Z,99998.10
2018-05-12T08:51:09.804Z,100005.00
2018-05-12T08:53:37.369Z,100004.25
2018-05-12T08:56:04.932Z,99997.64
2018-05-12T08:58:32.493Z,99994.61
2018-05-12T09:01:00.177Z,99993.90
2018-05-12T09:03:27.729Z,99991.48
2018-05-12T09:05:55.285Z,99994.60
2018-05-12T09:08:22.856Z,99994.55
2018-05-12T09:10:50.417Z,99999.77
2018-05-12T09:13:17.988Z,100005.22
2018-05-12T09:15:45.613Z,100007.96
2018-05-12T09:18:13.216Z,99998.94
2018-05-12T09:20:40.843Z,100004.52
2018-05-12T09:23:08.405Z,99991.10
2018-05-12T09:25:35.998Z,99983.19
2018-05-12T09:28:03.629Z,99985.84
2018-05-12T09:30:31.199Z,99981.30
2018-05-12T09:32:58.813Z,99973.78
2018-05-12T09:35:26.420Z,99971.41
2018-05-12T09:37:53.976Z,99960.16
2018-05-12T09:40:21.590Z,99964.94
2018-05-12T09:42:49.221Z,99962.58
2018-05-12T09:45:17.628Z,99963.40
2018-05-12T09:47:45.260Z,99958.31
2018-05-12T09:50:12.829Z,99956.09
2018-05-12T09:52:40.449Z,99950.87
2018-05-12T09:55:08.005Z,99947.00
2018-05-12T09:57:35.552Z,99945.50
2018-05-12T10:00:03.176Z,99950.18
2018-05-12T10:02:30.732Z,99943.95
2018-05-12T10:04:58.444Z,99947.00
2018-05-12T10:07:26.066Z,99938.34
2018-05-12T10:09:53.676Z,99936.33
2018-05-12T10:12:21.221Z,99940.04
2018-05-12T10:14:48.882Z,99940.26
2018-05-12T10:17:16.457Z,99949.22
2018-05-12T10:19:44.073Z,99957.70
2018-05-12T10:22:11.685Z,99953.92
2018-05-12T10:24:39.538Z,99954.71
2018-05-12T10:27:07.349Z,99936.04
2018-05-12T10:29:35.180Z,99935.09
2018-05-12T10:32:03.006Z,99934.22
2018-05-12T10:34:30.838Z,99928.72
2018-05-12T10:36:58.657Z,99929.87
2018-05-12T10:39:26.471Z,99926.78
2018-05-12T10:41:54.295Z,99918.68
2018-05-12T10:44:22.191Z,99920.97
2018-05-12T10:46:50.579Z,99921.78
2018-05-12T10:49:18.401Z,99923.33
2018-05-12T10:51:46.212Z,99918.77
2018-05-12T10:54:13.976Z,99915.91
2018-05-12T10:56:41.555Z,99915.58
2018-05-12T10:59:09.150Z,99907.61
2018-05-12T11:01:36.727Z,99906.02
2018-05-12T11:04:04.336Z,99906.70
2018-05-12T11:06:31.920Z,99902.34
2018-05-12T11:08:59.481Z,99895.03
2018-05-12T11:11:27.045Z,99887.74
2018-05-12T11:13:54.713Z,99891.20
2018-05-12T11:16:22.281Z,99889.16
2018-05-12T11:18:49.871Z,99889.34
2018-05-12T11:21:17.510Z,99887.87
2018-05-12T11:23:45.128Z,99893.73
2018-05-12T11:26:12.703Z,99884.69
2018-05-12T11:28:40.265Z,99881.64
2018-05-12T11:31:07.825Z,99873.34
2018-05-12T11:33:35.412Z,99880.38
2018-05-12T11:36:02.959Z,99867.41
2018-05-12T11:38:30.548Z,99870.41
2018-05-12T11:40:58.112Z,99863.61
2018-05-12T11:43:25.675Z,99857.63
2018-05-12T11:45:53.271Z,99853.04
2018-05-12T11:48:20.847Z,99864.14
2018-05-12T11:50:48.413Z,99855.30
2018-05-12T11:53:15.996Z,99850.91
2018-05-12T11:55:43.576Z,99851.91
2018-05-12T11:58:11.145Z,99850.16
2018-05-12T12:00:38.757Z,99843.59
2018-05-12T12:03:06.398Z,99843.25
2018-05-12T12:05:33.948Z,99839.06
2018-05-12T12:08:01.509Z,99836.47
2018-05-12T12:10:29.082Z,99824.85
2018-05-12T12:12:56.699Z,99827.58
2018-05-12T12:15:24.347Z,99816.33
2018-05-12T12:17:51.989Z,99806.98
2018-05-12T12:20:19.656Z,99803.16
2018-05-12T12:22:47.217Z,99803.37
2018-05-12T12:25:14.778Z,99796.34
2018-05-12T12:27:42.367Z,99792.14
2018-05-12T12:30:09.963Z,99789.95
2018-05-12T12:32:37.569Z,99786.40
2018-05-12T12:35:05.127Z,99781.73
2018-05-12T12:37:32.763Z,99779.59
2018-05-12T12:40:00.322Z,99769.98
2018-05-12T12:42:27.899Z,99778.41
2018-05-12T12:44:55.500Z,99764.09
2018-05-12T12:47:23.054Z,99767.64
2018-05-12T12:49:50.692Z,99763.77
2018-05-12T12:52:18.252Z,99757.02
2018-05-12T12:54:45.848Z,99752.61
2018-05-12T12:57:13.416Z,99755.82
2018-05-12T12:59:40.990Z,99753.50
2018-05-12T13:02:08.638Z,99744.08
2018-05-12T13:04:36.210Z,99741.88
2018-05-12T13:07:03.770Z,99742.22
2018-05-12T13:09:31.355Z,99739.47
2018-05-12T13:11:58.935Z,99739.07
2018-05-12T13:14:26.518Z,99729.22
2018-05-12T13:16:54.084Z,99722.47
2018-05-12T13:19:21.724Z,99719.17
2018-05-12T13:21:49.261Z,99721.86
2018-05-12T13:24:16.825Z,99711.01
2018-05-12T13:26:44.397Z,99709.47
2018-05-12T13:29:11.957Z,99705.45
2018-05-12T13:31:39.590Z,99710.52
2018-05-12T13:34:07.153Z,99712.02
2018-05-12T13:36:34.728Z,99705.12
2018-05-12T13:39:02.297Z,99699.96
2018-05-12T13:41:29.856Z,99700.69
2018-05-12T13:43:57.418Z,99700.45
2018-05-12T13:46:24.987Z,99709.06
2018-05-12T13:48:52.609Z,99698.96
2018-05-12T13:51:20.176Z,99685.64
2018-05-12T13:53:47.735Z,99693.02
2018-05-12T13:56:15.303Z,99687.35
2018-05-12T13:58:42.894Z,99687.52
2018-05-12T14:01:10.456Z,99682.80
2018-05-12T14:03:38.019Z,99683.93
2018-05-12T14:06:05.636Z,99689.14
2018-05-12T14:08:33.187Z,99689.33
2018-05-12T14:11:00.768Z,99680.52
2018-05-12T14:13:28.361Z,99684.25
2018-05-12T14:15:55.947Z,99672.64
2018-05-12T14:18:23.583Z,99673.52
2018-05-12T14:20:51.145Z,99676.66
2018-05-12T14:23:18.700Z,99668.69
2018-05-12T14:25:46.300Z,99669.92
2018-05-12T14:28:13.884Z,99671.14
2018-05-12T14:30:41.529Z,99668.92
2018-05-12T14:33:09.116Z,99671.49
2018-05-12T14:35:36.687Z,99670.23
2018-05-12T14:38:04.272Z,99671.48
2018-05-12T14:40:31.824Z,99669.65
2018-05-12T14:42:59.408Z,99667.99
2018-05-12T14:45:26.985Z,99670.25
2018-05-12T14:47:54.651Z,99660.47
2018-05-12T14:50:22.231Z,99657.66
2018-05-12T14:52:49.789Z,99653.63
2018-05-12T14:55:17.355Z,99655.72
2018-05-12T14:57:44.942Z,99649.03
2018-05-12T15:00:12.536Z,99652.00
2018-05-12T15:02:40.104Z,99654.27
2018-05-12T15:05:07.721Z,99649.39
2018-05-12T15:07:35.276Z,99643.27
2018-05-12T15:10:02.852Z,99640.58
2018-05-12T15:12:30.409Z,99646.79
2018-05-12T15:14:58.056Z,99640.48
2018-05-12T15:17:25.585Z,99646.72
2018-05-12T15:19:53.168Z,99639.70
2018-05-12T15:22:20.786Z,99639.08
2018-05-12T15:24:48.346Z,99641.09
2018-05-12T15:27:15.890Z,99641.90
2018-05-12T15:29:43.480Z,99641.84
2018-05-12T15:32:11.031Z,99646.54
2018-05-12T15:34:38.612Z,99652.53
2018-05-12T15:37:06.164Z,99653.71
2018-05-12T15:39:33.781Z,99656.48
2018-05-12T15:42:01.345Z,99658.02
2018-05-12T15:44:28.905Z,99651.21
2018-05-12T15:46:56.476Z,99651.05
2018-05-12T15:49:24.028Z,99650.59
2018-05-12T15:51:51.583Z,99654.00
2018-05-12T15:54:19.140Z,99648.81
2018-05-12T15:56:46.774Z,99650.42
2018-05-12T15:59:14.390Z,99650.38
2018-05-12T16:01:41.957Z,99647.70
2018-05-12T16:04:09.539Z,99655.24
2018-05-12T16:06:37.083Z,99652.50
2018-05-12T16:09:04.738Z,99655.80
2018-05-12T16:11:32.288Z,99655.50
2018-05-12T16:13:59.891Z,99654.41
2018-05-12T16:16:27.471Z,99660.98
2018-05-12T16:18:55.024Z,99657.30
2018-05-12T16:21:22.627Z,99655.30
2018-05-12T16:23:50.189Z,99661.19
2018-05-12T16:26:17.798Z,99651.05
2018-05-12T16:28:45.367Z,99653.32
2018-05-12T16:31:12.945Z,99651.96
2018-05-12T16:33:40.529Z,99656.84
2018-05-12T16:36:08.107Z,99655.11
2018-05-12T16:38:35.668Z,99659.41
2018-05-12T16:41:03.216Z,99663.06
2018-05-12T16:43:30.805Z,99660.45
2018-05-12T16:45:58.375Z,99666.02
2018-05-12T16:48:25.923Z,99669.94
2018-05-12T16:50:53.561Z,99668.93
2018-05-12T16:53:21.147Z,99671.78
2018-05-12T16:55:48.717Z,99668.75
2018-05-12T16:58:16.266Z,99673.23
2018-05-12T17:00:43.833Z,99676.00
2018-05-12T17:03:11.383Z,99678.47
2018-05-12T17:05:39.013Z,99678.34
2018-05-12T17:08:06.558Z,99684.42
2018-05-12T17:10:34.139Z,99675.05
2018-05-12T17:13:01.696Z,99679.41
2018-05-12T17:15:29.289Z,99683.80
2018-05-12T17:17:56.871Z,99679.00
2018-05-12T17:20:24.485Z,99683.03
2018-05-12T17:22:52.071Z,99683.13
2018-05-12T17:25:19.639Z,99690.23
2018-05-12T17:27:47.306Z,99693.17
2018-05-12T17:30:14.824Z,99687.36
2018-05-12T17:32:42.394Z,99689.61
2018-05-12T17:35:10.034Z,99696.97
2018-05-12T17:37:37.660Z,99696.10
2018-05-12T17:40:05.212Z,99695.80
2018-05-12T17:42:32.791Z,99698.38
2018-05-12T17:45:00.353Z,99704.25
2018-05-12T17:47:27.908Z,99711.24
2018-05-12T17:49:55.503Z,99717.41
2018-05-12T17:52:23.087Z,99711.24
2018-05-12T17:54:50.727Z,99718.38
2018-05-12T17:57:18.377Z,99715.09
2018-05-12T17:59:45.936Z,99713.25
2018-05-12T18:02:13.552Z,99718.52
2018-05-12T18:04:41.112Z,99716.46
2018-05-12T18:07:08.672Z,99716.83
2018-05-12T18:09:36.266Z,99718.25
2018-05-12T18:12:03.949Z,99721.90
2018-05-12T18:14:31.486Z,99729.03
2018-05-12T18:16:59.041Z,99731.38
2018-05-12T18:19:26.626Z,99730.02
2018-05-12T18:21:54.195Z,99733.62
2018-05-12T18:24:21.765Z,99731.77
2018-05-12T18:26:49.402Z,99735.74
2018-05-12T18:29:17.000Z,99735.52
2018-05-12T18:31:44.664Z,99734.27
2018-05-12T18:34:12.183Z,99730.56
2018-05-12T18:36:39.753Z,99730.34
2018-05-12T18:39:07.309Z,99732.53
2018-05-12T18:41:34.907Z,99733.47
2018-05-12T18:44:02.466Z,99738.21
2018-05-12T18:46:30.020Z,99738.92
2018-05-12T18:48:57.611Z,99737.71
2018-05-12T18:51:25.159Z,99736.20
2018-05-12T18:53:52.726Z,99738.50
2018-05-12T18:56:20.280Z,99745.44
2018-05-12T18:58:47.891Z,99751.86
2018-05-12T19:01:15.467Z,99754.04
2018-05-12T19:03:43.010Z,99753.88
2018-05-12T19:06:10.593Z,99749.86
2018-05-12T19:08:38.134Z,99751.40
2018-05-12T19:11:05.711Z,99750.63
2018-05-12T19:13:33.279Z,99747.30
2018-05-12T19:16:00.865Z,99748.99
2018-05-12T19:18:28.459Z,99752.11
2018-05-12T19:20:56.019Z,99762.82
2018-05-12T19:23:23.653Z,99759.02
2018-05-12T19:25:51.212Z,99761.41
2018-05-12T19:28:18.808Z,99764.13
2018-05-12T19:30:46.397Z,99765.56
2018-05-12T19:33:13.957Z,99765.16
2018-05-12T19:35:41.546Z,99755.97
2018-05-12T19:38:09.128Z,99765.17
2018-05-12T19:40:36.764Z,99761.48
2018-05-12T19:43:04.348Z,99769.89
2018-05-12T19:45:31.974Z,99773.13
2018-05-12T19:47:59.532Z,99772.97
2018-05-12T19:50:27.093Z,99765.87
2018-05-12T19:52:54.666Z,99765.09
2018-05-12T19:55:22.257Z,99762.95
2018-05-12T19:57:49.828Z,99765.66
2018-05-12T20:00:17.386Z,99771.80
2018-05-12T20:02:45.025Z,99775.61
2018-05-12T20:05:12.612Z,99775.77
2018-05-12T20:07:40.284Z,99772.77
2018-05-12T20:10:07.878Z,99779.94
2018-05-12T20:12:35.457Z,99770.33
2018-05-12T20:15:03.016Z,99770.09
2018-05-12T20:17:30.568Z,99767.08
2018-05-12T20:19:58.189Z,99767.44
2018-05-12T20:22:25.739Z,99776.03
2018-05-12T20:24:53.317Z,99772.12
2018-05-12T20:27:20.903Z,99779.43
2018-05-12T20:29:48.505Z,99771.90
2018-05-12T20:32:16.087Z,99767.83
2018-05-12T20:34:43.658Z,99763.88
2018-05-12T20:37:11.323Z,99756.58
2018-05-12T20:39:38.860Z,99761.84
2018-05-12T20:42:06.424Z,99762.90
2018-05-12T20:44:33.983Z,99757.05
2018-05-12T20:47:01.573Z,99756.31
2018-05-12T20:49:29.187Z,99758.09
2018-05-12T20:51:56.844Z,99753.20
2018-05-12T20:54:24.408Z,99752.78
2018-05-12T20:56:52.020Z,99750.59
2018-05-12T20:59:19.576Z,99752.23
2018-05-12T21:01:47.198Z,99750.68
2018-05-12T21:04:14.817Z,99750.59
2018-05-12T21:06:42.433Z,99747.70
2018-05-12T21:09:10.062Z,99750.16
2018-05-12T21:11:37.844Z,99747.60
2018-05-12T21:14:05.408Z,99747.34
2018-05-12T21:16:33.075Z,99749.23
2018-05-12T21:19:00.709Z,99741.63
2018-05-12T21:21:28.765Z,99753.45
2018-05-12T21:23:56.335Z,99758.84
2018-05-12T21:26:24.021Z,99746.88
2018-05-12T21:28:51.619Z,99746.61
2018-05-12T21:31:19.185Z,99746.66
2018-05-12T21:33:46.735Z,99758.41
2018-05-12T21:36:14.364Z,99759.23
2018-05-12T21:38:41.940Z,99761.27
2018-05-12T21:41:09.542Z,99770.66
2018-05-12T21:43:37.164Z,99773.04
2018-05-12T21:46:04.735Z,99766.71
2018-05-12T21:48:32.389Z,99775.97
2018-05-12T21:51:00.016Z,99777.23
2018-05-12T21:53:27.709Z,99774.62
2018-05-12T21:55:55.269Z,99777.23
2018-05-12T21:58:22.868Z,99776.17
2018-05-12T22:00:50.429Z,99773.36
2018-05-12T22:03:18.069Z,99771.80
2018-05-12T22:05:45.590Z,99769.07
2018-05-12T22:08:13.145Z,99762.84
2018-05-12T22:10:40.858Z,99763.92
2018-05-12T22:13:08.485Z,99772.56
2018-05-12T22:15:36.041Z,99764.44
2018-05-12T22:18:03.744Z,99764.20
2018-05-12T22:20:31.306Z,99764.12
2018-05-12T22:22:58.940Z,99762.95
2018-05-12T22:25:26.510Z,99755.64
2018-05-12T22:27:54.116Z,99758.98
2018-05-12T22:30:21.701Z,99758.65
2018-05-12T22:32:49.329Z,99754.12
2018-05-12T22:35:16.967Z,99751.12
2018-05-12T22:37:44.581Z,99750.16
2018-05-12T22:40:12.248Z,99758.17
2018-05-12T22:42:39.805Z,99752.56
2018-05-12T22:45:07.481Z,99757.05
2018-05-12T22:47:35.036Z,99752.25
2018-05-12T22:50:02.661Z,99749.75
2018-05-12T22:52:30.230Z,99753.90
2018-05-12T22:54:57.868Z,99754.44
2018-05-12T22:57:25.499Z,99748.52
2018-05-12T22:59:53.127Z,99750.27
2018-05-12T23:02:20.761Z,99750.22
2018-05-12T23:04:48.312Z,99745.33
2018-05-12T23:07:15.889Z,99741.26
2018-05-12T23:09:43.512Z,99742.49
2018-05-12T23:12:11.062Z,99743.92
2018-05-12T23:14:38.676Z,99750.40
2018-05-12T23:17:06.237Z,99750.92
2018-05-12T23:19:33.847Z,99752.72
2018-05-12T23:22:01.406Z,99746.20
2018-05-12T23:24:28.971Z,99743.65
2018-05-12T23:26:56.542Z,99735.13
2018-05-12T23:29:24.096Z,99746.12
2018-05-12T23:31:51.852Z,99745.83
2018-05-12T23:34:19.349Z,99743.10
2018-05-12T23:36:46.897Z,99741.11
2018-05-12T23:39:14.461Z,99741.39
2018-05-12T23:41:42.068Z,99746.18
2018-05-12T23:44:09.633Z,99745.86
2018-05-12T23:46:37.188Z,99746.02
2018-05-12T23:49:04.796Z,99743.92
2018-05-12T23:51:32.433Z,99737.74
2018-05-12T23:53:59.996Z,99737.19
2018-05-12T23:56:27.637Z,99736.59
2018-05-12T23:58:55.201Z,99730.45
